sensor_id;sensor_type;location;lat;lon;timestamp;pressure;altitude;pressure_sealevel;temperature;humidity
79230;BME280;68663;49.122;17.544;2023-12-29T00:01:59;99584.06;;;24.00;48.73
79230;BME280;68663;49.122;17.544;2023-12-29T00:04:25;99580.88;;;23.98;48.74
79230;BME280;68663;49.122;17.544;2023-12-29T00:06:50;99580.06;;;23.97;48.91
79230;BME280;68663;49.122;17.544;2023-12-29T00:09:16;99576.81;;;23.99;48.50
79230;BME280;68663;49.122;17.544;2023-12-29T00:11:41;99579.22;;;24.00;48.70
79230;BME280;68663;49.122;17.544;2023-12-29T00:14:07;99564.69;;;24.02;48.70
79230;BME280;68663;49.122;17.544;2023-12-29T00:16:32;99567.06;;;24.03;48.58
79230;BME280;68663;49.122;17.544;2023-12-29T00:18:58;99569.47;;;24.05;48.45
79230;BME280;68663;49.122;17.544;2023-12-29T00:21:23;99560.56;;;24.06;48.50
79230;BME280;68663;49.122;17.544;2023-12-29T00:23:49;99558.97;;;24.05;48.74
79230;BME280;68663;49.122;17.544;2023-12-29T00:26:17;99558.56;;;24.07;48.22
79230;BME280;68663;49.122;17.544;2023-12-29T00:28:43;99548.47;;;24.06;48.16
79230;BME280;68663;49.122;17.544;2023-12-29T00:31:13;99555.72;;;24.07;48.32
79230;BME280;68663;49.122;17.544;2023-12-29T00:33:39;99556.53;;;24.07;48.16
79230;BME280;68663;49.122;17.544;2023-12-29T00:36:05;99562.66;;;24.02;48.32
79230;BME280;68663;49.122;17.544;2023-12-29T00:38:30;99552.59;;;24.01;48.20
79230;BME280;68663;49.122;17.544;2023-12-29T00:40:56;99547.78;;;23.98;48.52
79230;BME280;68663;49.122;17.544;2023-12-29T00:43:21;99555.88;;;23.96;48.55
79230;BME280;68663;49.122;17.544;2023-12-29T00:45:48;99551.09;;;23.93;48.71
79230;BME280;68663;49.122;17.544;2023-12-29T00:48:13;99540.59;;;23.94;48.35
79230;BME280;68663;49.122;17.544;2023-12-29T00:50:39;99546.22;;;23.94;48.53
79230;BME280;68663;49.122;17.544;2023-12-29T00:53:04;99539.78;;;23.93;48.41
79230;BME280;68663;49.122;17.544;2023-12-29T00:55:29;99546.22;;;23.94;48.59
79230;BME280;68663;49.122;17.544;2023-12-29T00:57:55;99538.13;;;23.96;48.66
79230;BME280;68663;49.122;17.544;2023-12-29T01:00:20;99536.91;;;23.97;48.48
79230;BME280;68663;49.122;17.544;2023-12-29T01:02:46;99553.06;;;23.96;48.32
79230;BME280;68663;49.122;17.544;2023-12-29T01:05:17;99554.28;;;23.95;48.51
79230;BME280;68663;49.122;17.544;2023-12-29T01:07:43;99559.13;;;23.95;48.26
79230;BME280;68663;49.122;17.544;2023-12-29T01:10:09;99561.16;;;23.94;48.66
79230;BME280;68663;49.122;17.544;2023-12-29T01:12:34;99554.72;;;23.94;48.39
79230;BME280;68663;49.122;17.544;2023-12-29T01:15:00;99552.69;;;23.94;48.42
79230;BME280;68663;49.122;17.544;2023-12-29T01:17:25;99551.88;;;23.94;48.35
79230;BME280;68663;49.122;17.544;2023-12-29T01:19:53;99556.31;;;23.95;48.19
79230;BME280;68663;49.122;17.544;2023-12-29T01:22:18;99549.44;;;23.96;48.41
79230;BME280;68663;49.122;17.544;2023-12-29T01:24:44;99540.97;;;23.96;48.42
79230;BME280;68663;49.122;17.544;2023-12-29T01:27:10;99543.34;;;23.97;48.46
79230;BME280;68663;49.122;17.544;2023-12-29T01:29:35;99535.69;;;23.98;48.27
79230;BME280;68663;49.122;17.544;2023-12-29T01:32:00;99528.38;;;24.00;48.27
79230;BME280;68663;49.122;17.544;2023-12-29T01:34:28;99530.03;;;23.98;48.56
79230;BME280;68663;49.122;17.544;2023-12-29T01:36:58;99528.44;;;23.97;48.35
79230;BME280;68663;49.122;17.544;2023-12-29T01:39:23;99536.53;;;23.95;48.28
79230;BME280;68663;49.122;17.544;2023-12-29T01:41:49;99537.75;;;23.94;48.15
79230;BME280;68663;49.122;17.544;2023-12-29T01:44:19;99537.38;;;23.92;48.33
79230;BME280;68663;49.122;17.544;2023-12-29T01:46:53;99541.44;;;23.91;48.34
79230;BME280;68663;49.122;17.544;2023-12-29T01:49:19;99544.25;;;23.91;48.40
79230;BME280;68663;49.122;17.544;2023-12-29T01:51:51;99543.03;;;23.92;48.46
79230;BME280;68663;49.122;17.544;2023-12-29T01:54:19;99539.78;;;23.93;48.14
79230;BME280;68663;49.122;17.544;2023-12-29T01:56:46;99536.53;;;23.95;48.29
79230;BME280;68663;49.122;17.544;2023-12-29T01:59:12;99527.25;;;23.94;48.15
79230;BME280;68663;49.122;17.544;2023-12-29T02:01:38;99513.94;;;23.95;48.14
79230;BME280;68663;49.122;17.544;2023-12-29T02:04:06;99509.53;;;23.94;48.13
79230;BME280;68663;49.122;17.544;2023-12-29T02:06:33;99506.69;;;23.94;48.27
79230;BME280;68663;49.122;17.544;2023-12-29T02:08:59;99520.81;;;23.94;48.39
79230;BME280;68663;49.122;17.544;2023-12-29T02:11:26;99522.00;;;23.96;48.10
79230;BME280;68663;49.122;17.544;2023-12-29T02:13:51;99525.25;;;23.95;48.11
79230;BME280;68663;49.122;17.544;2023-12-29T02:19:38;99513.09;;;23.98;47.91
79230;BME280;68663;49.122;17.544;2023-12-29T02:22:08;99505.41;;;23.98;48.27
79230;BME280;68663;49.122;17.544;2023-12-29T02:24:34;99510.25;;;23.98;48.08
79230;BME280;68663;49.122;17.544;2023-12-29T02:30:41;99492.19;;;23.92;47.99
79230;BME280;68663;49.122;17.544;2023-12-29T02:32:42;99491.41;;;23.91;48.31
79230;BME280;68663;49.122;17.544;2023-12-29T02:35:14;99494.66;;;23.90;48.32
79230;BME280;68663;49.122;17.544;2023-12-29T02:37:40;99487.41;;;23.89;48.15
79230;BME280;68663;49.122;17.544;2023-12-29T02:40:07;99489.84;;;23.87;47.96
79230;BME280;68663;49.122;17.544;2023-12-29T02:42:34;99483.34;;;23.90;48.09
79230;BME280;68663;49.122;17.544;2023-12-29T02:44:59;99484.09;;;23.94;48.21
79230;BME280;68663;49.122;17.544;2023-12-29T02:47:25;99485.34;;;23.93;48.03
79230;BME280;68663;49.122;17.544;2023-12-29T02:49:50;99486.56;;;23.92;48.17
79230;BME280;68663;49.122;17.544;2023-12-29T02:52:16;99490.19;;;23.92;47.97
79230;BME280;68663;49.122;17.544;2023-12-29T02:54:41;99493.00;;;23.92;47.99
79230;BME280;68663;49.122;17.544;2023-12-29T02:57:06;99493.81;;;23.93;47.86
79230;BME280;68663;49.122;17.544;2023-12-29T02:59:32;99481.28;;;23.94;48.11
79230;BME280;68663;49.122;17.544;2023-12-29T03:01:57;99478.47;;;23.94;48.08
79230;BME280;68663;49.122;17.544;2023-12-29T03:04:23;99469.97;;;23.94;48.07
79230;BME280;68663;49.122;17.544;2023-12-29T03:06:48;99467.53;;;23.96;47.81
79230;BME280;68663;49.122;17.544;2023-12-29T03:09:14;99466.72;;;23.95;48.06
79230;BME280;68663;49.122;17.544;2023-12-29T03:11:39;99463.13;;;23.95;47.79
79230;BME280;68663;49.122;17.544;2023-12-29T03:14:05;99461.50;;;23.94;47.82
79230;BME280;68663;49.122;17.544;2023-12-29T03:16:30;99459.53;;;23.91;47.93
79230;BME280;68663;49.122;17.544;2023-12-29T03:18:56;99451.94;;;23.88;48.15
79230;BME280;68663;49.122;17.544;2023-12-29T03:21:21;99454.38;;;23.86;48.06
79230;BME280;68663;49.122;17.544;2023-12-29T03:23:47;99449.59;;;23.82;48.20
79230;BME280;68663;49.122;17.544;2023-12-29T03:26:12;99458.06;;;23.82;47.86
79230;BME280;68663;49.122;17.544;2023-12-29T03:28:37;99457.25;;;23.82;47.88
79230;BME280;68663;49.122;17.544;2023-12-29T03:31:03;99439.94;;;23.80;48.26
79230;BME280;68663;49.122;17.544;2023-12-29T03:33:28;99444.78;;;23.79;48.10
79230;BME280;68663;49.122;17.544;2023-12-29T03:35:54;99434.28;;;23.80;48.39
79230;BME280;68663;49.122;17.544;2023-12-29T03:38:19;99435.88;;;23.81;47.79
79230;BME280;68663;49.122;17.544;2023-12-29T03:40:45;99446.34;;;23.84;48.18
79230;BME280;68663;49.122;17.544;2023-12-29T03:43:10;99447.13;;;23.85;47.80
79230;BME280;68663;49.122;17.544;2023-12-29T03:45:36;99451.97;;;23.84;48.18
79230;BME280;68663;49.122;17.544;2023-12-29T03:48:01;99458.44;;;23.85;47.98
79230;BME280;68663;49.122;17.544;2023-12-29T03:50:27;99457.63;;;23.84;48.25
79230;BME280;68663;49.122;17.544;2023-12-29T03:52:52;99457.19;;;23.86;48.21
79230;BME280;68663;49.122;17.544;2023-12-29T03:55:17;99454.38;;;23.86;47.84
79230;BME280;68663;49.122;17.544;2023-12-29T03:57:43;99449.53;;;23.86;48.26
79230;BME280;68663;49.122;17.544;2023-12-29T04:00:12;99446.28;;;23.88;48.27
79230;BME280;68663;49.122;17.544;2023-12-29T04:02:38;99430.94;;;23.89;48.23
79230;BME280;68663;49.122;17.544;2023-12-29T04:05:03;99434.13;;;23.91;48.21
79230;BME280;68663;49.122;17.544;2023-12-29T04:07:30;99428.47;;;23.91;48.18
79230;BME280;68663;49.122;17.544;2023-12-29T04:09:56;99426.09;;;23.89;47.85
79230;BME280;68663;49.122;17.544;2023-12-29T04:12:21;99431.00;;;23.85;48.08
79230;BME280;68663;49.122;17.544;2023-12-29T04:14:46;99434.25;;;23.83;48.21
79230;BME280;68663;49.122;17.544;2023-12-29T04:17:12;99424.16;;;23.82;47.97
79230;BME280;68663;49.122;17.544;2023-12-29T04:19:40;99425.41;;;23.81;47.83
79230;BME280;68663;49.122;17.544;2023-12-29T04:22:06;99423.38;;;23.82;47.91
79230;BME280;68663;49.122;17.544;2023-12-29T04:24:32;99430.25;;;23.81;48.29
79230;BME280;68663;49.122;17.544;2023-12-29T04:26:57;99445.91;;;23.86;48.14
79230;BME280;68663;49.122;17.544;2023-12-29T04:29:23;99450.31;;;23.87;47.84
79230;BME280;68663;49.122;17.544;2023-12-29T04:31:48;99444.69;;;23.87;47.92
79230;BME280;68663;49.122;17.544;2023-12-29T04:34:14;99447.50;;;23.87;48.04
79230;BME280;68663;49.122;17.544;2023-12-29T04:36:39;99447.50;;;23.87;48.23
79230;BME280;68663;49.122;17.544;2023-12-29T04:39:05;99458.00;;;23.86;48.05
79230;BME280;68663;49.122;17.544;2023-12-29T04:41:30;99466.47;;;23.86;48.05
79230;BME280;68663;49.122;17.544;2023-12-29T04:43:55;99478.94;;;23.89;47.76
79230;BME280;68663;49.122;17.544;2023-12-29T04:46:21;99476.91;;;23.89;47.86
79230;BME280;68663;49.122;17.544;2023-12-29T04:48:46;99465.63;;;23.89;48.07
79230;BME280;68663;49.122;17.544;2023-12-29T04:51:12;99465.19;;;23.91;48.05
79230;BME280;68663;49.122;17.544;2023-12-29T04:53:37;99459.91;;;23.93;47.75
79230;BME280;68663;49.122;17.544;2023-12-29T04:56:02;99460.72;;;23.93;47.91
79230;BME280;68663;49.122;17.544;2023-12-29T04:58:28;99463.13;;;23.95;47.76
79230;BME280;68663;49.122;17.544;2023-12-29T05:00:53;99466.00;;;23.91;47.65
79230;BME280;68663;49.122;17.544;2023-12-29T05:03:19;99441.44;;;23.88;47.86
79230;BME280;68663;49.122;17.544;2023-12-29T05:05:44;99452.34;;;23.86;47.64
79230;BME280;68663;49.122;17.544;2023-12-29T05:08:10;99441.84;;;23.87;47.71
79230;BME280;68663;49.122;17.544;2023-12-29T05:10:36;99457.19;;;23.86;47.79
79230;BME280;68663;49.122;17.544;2023-12-29T05:13:02;99455.59;;;23.85;47.73
79230;BME280;68663;49.122;17.544;2023-12-29T05:15:27;99455.22;;;23.82;47.81
79230;BME280;68663;49.122;17.544;2023-12-29T05:17:52;99455.66;;;23.81;48.05
79230;BME280;68663;49.122;17.544;2023-12-29T05:20:18;99457.63;;;23.84;47.96
79230;BME280;68663;49.122;17.544;2023-12-29T05:22:43;99458.44;;;23.85;47.84
79230;BME280;68663;49.122;17.544;2023-12-29T05:25:09;99451.97;;;23.84;47.76
79230;BME280;68663;49.122;17.544;2023-12-29T05:27:34;99458.78;;;23.87;47.68
79230;BME280;68663;49.122;17.544;2023-12-29T05:30:00;99460.03;;;23.86;47.96
79230;BME280;68663;49.122;17.544;2023-12-29T05:32:26;99458.78;;;23.87;48.00
79230;BME280;68663;49.122;17.544;2023-12-29T05:34:51;99455.59;;;23.85;48.04
79230;BME280;68663;49.122;17.544;2023-12-29T05:37:17;99455.19;;;23.86;47.94
79230;BME280;68663;49.122;17.544;2023-12-29T05:39:42;99467.28;;;23.87;47.60
79230;BME280;68663;49.122;17.544;2023-12-29T05:42:08;99453.53;;;23.89;47.63
79230;BME280;68663;49.122;17.544;2023-12-29T05:44:36;99456.34;;;23.89;47.89
79230;BME280;68663;49.122;17.544;2023-12-29T05:47:01;99455.13;;;23.90;47.63
79230;BME280;68663;49.122;17.544;2023-12-29T05:49:27;99463.16;;;23.91;47.77
79230;BME280;68663;49.122;17.544;2023-12-29T05:51:52;99471.25;;;23.89;47.67
79230;BME280;68663;49.122;17.544;2023-12-29T05:54:18;99485.06;;;23.83;47.80
79230;BME280;68663;49.122;17.544;2023-12-29T05:56:43;99485.88;;;23.84;47.32
79230;BME280;68663;49.122;17.544;2023-12-29T05:59:09;99497.16;;;23.84;47.51
79230;BME280;68663;49.122;17.544;2023-12-29T06:01:35;99494.75;;;23.82;47.73
79230;BME280;68663;49.122;17.544;2023-12-29T06:04:00;99490.75;;;23.80;47.77
79230;BME280;68663;49.122;17.544;2023-12-29T06:06:26;99499.22;;;23.80;47.81
79230;BME280;68663;49.122;17.544;2023-12-29T06:08:51;99500.03;;;23.80;47.88
79230;BME280;68663;49.122;17.544;2023-12-29T06:11:17;99489.13;;;23.82;48.05
79230;BME280;68663;49.122;17.544;2023-12-29T06:13:42;99496.72;;;23.86;47.84
79230;BME280;68663;49.122;17.544;2023-12-29T06:16:07;99503.97;;;23.87;47.70
79230;BME280;68663;49.122;17.544;2023-12-29T06:18:33;99491.09;;;23.86;47.52
79230;BME280;68663;49.122;17.544;2023-12-29T06:20:58;99491.09;;;23.86;47.42
79230;BME280;68663;49.122;17.544;2023-12-29T06:23:24;99491.09;;;23.86;47.37
79230;BME280;68663;49.122;17.544;2023-12-29T06:25:51;99482.63;;;23.86;47.48
79230;BME280;68663;49.122;17.544;2023-12-29T06:28:16;99484.22;;;23.87;47.48
79230;BME280;68663;49.122;17.544;2023-12-29T06:30:42;99487.03;;;23.87;47.36
79230;BME280;68663;49.122;17.544;2023-12-29T06:33:07;99476.13;;;23.89;47.57
79230;BME280;68663;49.122;17.544;2023-12-29T06:35:33;99467.66;;;23.89;47.43
79230;BME280;68663;49.122;17.544;2023-12-29T06:37:59;99463.59;;;23.90;47.58
79230;BME280;68663;49.122;17.544;2023-12-29T06:40:24;99468.00;;;23.91;47.24
79230;BME280;68663;49.122;17.544;2023-12-29T06:42:49;99478.09;;;23.92;47.33
79230;BME280;68663;49.122;17.544;2023-12-29T06:45:15;99479.69;;;23.93;47.37
79230;BME280;68663;49.122;17.544;2023-12-29T06:47:40;99476.84;;;23.93;47.40
79230;BME280;68663;49.122;17.544;2023-12-29T06:50:06;99472.81;;;23.94;47.16
79230;BME280;68663;49.122;17.544;2023-12-29T06:52:32;99464.75;;;23.92;47.22
79230;BME280;68663;49.122;17.544;2023-12-29T06:55:02;99456.72;;;23.91;46.94
79230;BME280;68663;49.122;17.544;2023-12-29T06:57:27;99451.13;;;23.87;46.94
79230;BME280;68663;49.122;17.544;2023-12-29T06:59:53;99470.09;;;23.87;47.18
79230;BME280;68663;49.122;17.544;2023-12-29T07:02:18;99465.28;;;23.83;47.39
79230;BME280;68663;49.122;17.544;2023-12-29T07:04:44;99460.50;;;23.80;47.01
79230;BME280;68663;49.122;17.544;2023-12-29T07:07:09;99457.69;;;23.80;47.14
79230;BME280;68663;49.122;17.544;2023-12-29T07:09:38;99457.69;;;23.80;47.23
79230;BME280;68663;49.122;17.544;2023-12-29T07:12:03;99461.72;;;23.79;47.24
79230;BME280;68663;49.122;17.544;2023-12-29T07:14:29;99459.28;;;23.81;47.33
79230;BME280;68663;49.122;17.544;2023-12-29T07:16:54;99449.97;;;23.85;47.44
79230;BME280;68663;49.122;17.544;2023-12-29T07:19:19;99450.31;;;23.87;47.25
79230;BME280;68663;49.122;17.544;2023-12-29T07:21:45;99440.63;;;23.88;47.18
79230;BME280;68663;49.122;17.544;2023-12-29T07:24:11;99449.09;;;23.88;47.16
79230;BME280;68663;49.122;17.544;2023-12-29T07:26:36;99447.06;;;23.88;47.07
79230;BME280;68663;49.122;17.544;2023-12-29T07:29:02;99446.28;;;23.88;47.54
79230;BME280;68663;49.122;17.544;2023-12-29T07:31:27;99449.47;;;23.90;47.51
79230;BME280;68663;49.122;17.544;2023-12-29T07:33:53;99442.22;;;23.89;47.25
79230;BME280;68663;49.122;17.544;2023-12-29T07:36:18;99459.53;;;23.91;47.01
79230;BME280;68663;49.122;17.544;2023-12-29T07:38:44;99470.84;;;23.91;47.38
79230;BME280;68663;49.122;17.544;2023-12-29T07:41:09;99474.03;;;23.93;47.39
79230;BME280;68663;49.122;17.544;2023-12-29T07:43:35;99473.59;;;23.94;46.98
79230;BME280;68663;49.122;17.544;2023-12-29T07:46:01;99475.22;;;23.95;47.04
79230;BME280;68663;49.122;17.544;2023-12-29T07:48:27;99480.44;;;23.97;47.13
79230;BME280;68663;49.122;17.544;2023-12-29T07:50:52;99467.91;;;23.98;46.88
79230;BME280;68663;49.122;17.544;2023-12-29T07:53:18;99473.56;;;23.98;46.98
79230;BME280;68663;49.122;17.544;2023-12-29T07:55:44;99472.81;;;23.94;47.15
79230;BME280;68663;49.122;17.544;2023-12-29T07:58:11;99472.44;;;23.92;46.97
79230;BME280;68663;49.122;17.544;2023-12-29T08:00:37;99482.13;;;23.91;46.88
79230;BME280;68663;49.122;17.544;2023-12-29T08:03:03;99473.28;;;23.89;47.42
79230;BME280;68663;49.122;17.544;2023-12-29T08:05:29;99472.91;;;23.87;46.89
79230;BME280;68663;49.122;17.544;2023-12-29T08:07:54;99480.16;;;23.88;47.30
79230;BME280;68663;49.122;17.544;2023-12-29T08:10:20;99474.88;;;23.90;47.24
79230;BME280;68663;49.122;17.544;2023-12-29T08:12:45;99474.88;;;23.90;47.08
79230;BME280;68663;49.122;17.544;2023-12-29T08:15:11;99474.50;;;23.88;47.45
79230;BME280;68663;49.122;17.544;2023-12-29T08:17:36;99476.91;;;23.89;47.74
79230;BME280;68663;49.122;17.544;2023-12-29T08:20:03;99475.25;;;23.92;47.68
79230;BME280;68663;49.122;17.544;2023-12-29T08:22:32;99466.78;;;23.92;47.51
79230;BME280;68663;49.122;17.544;2023-12-29T08:24:58;99457.47;;;23.95;48.10
79230;BME280;68663;49.122;17.544;2023-12-29T08:27:25;99452.19;;;23.97;48.84
79230;BME280;68663;49.122;17.544;2023-12-29T08:29:51;99452.56;;;23.99;49.89
79230;BME280;68663;49.122;17.544;2023-12-29T08:32:16;99456.56;;;24.01;50.14
79230;BME280;68663;49.122;17.544;2023-12-29T08:34:42;99443.22;;;24.02;50.35
79230;BME280;68663;49.122;17.544;2023-12-29T08:37:07;99452.94;;;24.01;50.18
79230;BME280;68663;49.122;17.544;2023-12-29T08:39:32;99461.41;;;24.01;50.71
79230;BME280;68663;49.122;17.544;2023-12-29T08:41:58;99470.34;;;23.96;50.41
79230;BME280;68663;49.122;17.544;2023-12-29T08:44:24;99465.94;;;23.95;50.11
79230;BME280;68663;49.122;17.544;2023-12-29T08:46:50;99464.72;;;23.96;50.09
79230;BME280;68663;49.122;17.544;2023-12-29T08:49:16;99473.19;;;23.96;49.94
79230;BME280;68663;49.122;17.544;2023-12-29T08:51:41;99482.03;;;23.98;49.41
79230;BME280;68663;49.122;17.544;2023-12-29T08:54:06;99477.59;;;23.97;49.34
79230;BME280;68663;49.122;17.544;2023-12-29T08:56:32;99471.16;;;23.96;49.55
79230;BME280;68663;49.122;17.544;2023-12-29T08:58:57;99466.41;;;23.90;48.41
79230;BME280;68663;49.122;17.544;2023-12-29T09:01:23;99474.25;;;23.78;41.09
79230;BME280;68663;49.122;17.544;2023-12-29T09:03:48;99474.41;;;23.68;37.82
79230;BME280;68663;49.122;17.544;2023-12-29T09:06:14;99475.94;;;23.72;40.08
79230;BME280;68663;49.122;17.544;2023-12-29T09:08:40;99480.38;;;23.73;39.41
79230;BME280;68663;49.122;17.544;2023-12-29T09:11:06;99477.13;;;23.75;39.66
79230;BME280;68663;49.122;17.544;2023-12-29T09:13:31;99481.97;;;23.74;39.98
79230;BME280;68663;49.122;17.544;2023-12-29T09:15:58;99462.59;;;23.76;41.39
79230;BME280;68663;49.122;17.544;2023-12-29T09:18:24;99467.00;;;23.77;42.11
79230;BME280;68663;49.122;17.544;2023-12-29T09:20:49;99460.13;;;23.78;42.60
79230;BME280;68663;49.122;17.544;2023-12-29T09:23:15;99468.13;;;23.83;42.72
79230;BME280;68663;49.122;17.544;2023-12-29T09:25:41;99470.47;;;23.89;43.27
79230;BME280;68663;49.122;17.544;2023-12-29T09:28:06;99465.63;;;23.89;43.50
79230;BME280;68663;49.122;17.544;2023-12-29T09:30:32;99455.97;;;23.87;43.33
79230;BME280;68663;49.122;17.544;2023-12-29T09:32:57;99457.56;;;23.88;44.23
79230;BME280;68663;49.122;17.544;2023-12-29T09:35:23;99446.28;;;23.88;44.63
79230;BME280;68663;49.122;17.544;2023-12-29T09:37:49;99445.47;;;23.87;45.02
79230;BME280;68663;49.122;17.544;2023-12-29T09:40:15;99445.91;;;23.86;45.22
79230;BME280;68663;49.122;17.544;2023-12-29T09:42:42;99445.91;;;23.86;45.57
79230;BME280;68663;49.122;17.544;2023-12-29T09:45:10;99440.25;;;23.86;45.57
79230;BME280;68663;49.122;17.544;2023-12-29T09:47:42;99448.69;;;23.89;45.66
79230;BME280;68663;49.122;17.544;2023-12-29T09:50:10;99451.06;;;23.91;45.57
79230;BME280;68663;49.122;17.544;2023-12-29T09:52:37;99440.56;;;23.91;46.09
79230;BME280;68663;49.122;17.544;2023-12-29T09:55:05;99442.22;;;23.89;46.56
79230;BME280;68663;49.122;17.544;2023-12-29T09:57:35;99448.72;;;23.86;46.07
79230;BME280;68663;49.122;17.544;2023-12-29T10:00:01;99457.19;;;23.86;46.34
79230;BME280;68663;49.122;17.544;2023-12-29T10:02:27;99464.81;;;23.89;46.54
79230;BME280;68663;49.122;17.544;2023-12-29T10:04:53;99455.97;;;23.87;46.82
79230;BME280;68663;49.122;17.544;2023-12-29T10:07:25;99452.66;;;23.92;47.98
79230;BME280;68663;49.122;17.544;2023-12-29T10:09:55;99450.09;;;24.01;49.81
79230;BME280;68663;49.122;17.544;2023-12-29T10:12:21;99442.75;;;24.07;51.04
79230;BME280;68663;49.122;17.544;2023-12-29T10:15:00;99438.56;;;24.15;52.46
79230;BME280;68663;49.122;17.544;2023-12-29T10:17:48;99443.31;;;24.22;53.71
79230;BME280;68663;49.122;17.544;2023-12-29T10:20:32;99410.56;;;24.24;50.83
79230;BME280;68663;49.122;17.544;2023-12-29T10:23:12;99407.75;;;24.24;50.98
79230;BME280;68663;49.122;17.544;2023-12-29T10:25:42;99398.47;;;24.24;51.09
79230;BME280;68663;49.122;17.544;2023-12-29T10:28:07;99398.03;;;24.25;51.14
79230;BME280;68663;49.122;17.544;2023-12-29T10:30:34;99395.66;;;24.24;50.85
79230;BME280;68663;49.122;17.544;2023-12-29T10:33:00;99388.41;;;24.23;49.97
79230;BME280;68663;49.122;17.544;2023-12-29T10:35:26;99405.28;;;24.26;53.55
79230;BME280;68663;49.122;17.544;2023-12-29T10:37:52;99403.69;;;24.29;54.32
79230;BME280;68663;49.122;17.544;2023-12-29T10:40:19;99394.41;;;24.28;53.01
79230;BME280;68663;49.122;17.544;2023-12-29T10:42:54;99404.91;;;24.28;51.63
79230;BME280;68663;49.122;17.544;2023-12-29T10:45:20;99391.59;;;24.28;51.53
79230;BME280;68663;49.122;17.544;2023-12-29T10:47:47;99392.38;;;24.29;51.21
79230;BME280;68663;49.122;17.544;2023-12-29T10:50:12;99393.19;;;24.29;50.52
79230;BME280;68663;49.122;17.544;2023-12-29T10:52:38;99395.22;;;24.29;50.85
79230;BME280;68663;49.122;17.544;2023-12-29T10:55:09;99380.22;;;24.32;50.42
79230;BME280;68663;49.122;17.544;2023-12-29T10:57:37;99389.06;;;24.34;50.57
79230;BME280;68663;49.122;17.544;2023-12-29T11:00:04;99387.84;;;24.35;50.46
79230;BME280;68663;49.122;17.544;2023-12-29T11:02:36;99374.94;;;24.34;50.48
79230;BME280;68663;49.122;17.544;2023-12-29T11:07:38;99375.38;;;24.32;50.42
79230;BME280;68663;49.122;17.544;2023-12-29T11:10:06;99361.25;;;24.32;50.62
79230;BME280;68663;49.122;17.544;2023-12-29T11:12:33;99359.66;;;24.31;50.51
79230;BME280;68663;49.122;17.544;2023-12-29T11:15:02;99354.44;;;24.30;50.35
79230;BME280;68663;49.122;17.544;2023-12-29T11:17:29;99355.22;;;24.30;50.42
79230;BME280;68663;49.122;17.544;2023-12-29T11:19:55;99359.22;;;24.33;50.38
79230;BME280;68663;49.122;17.544;2023-12-29T11:22:22;99353.50;;;24.36;50.19
79230;BME280;68663;49.122;17.544;2023-12-29T11:24:48;99362.34;;;24.38;50.17
79230;BME280;68663;49.122;17.544;2023-12-29T11:27:14;99361.09;;;24.39;50.21
79230;BME280;68663;49.122;17.544;2023-12-29T11:29:42;99369.59;;;24.39;49.91
79230;BME280;68663;49.122;17.544;2023-12-29T11:32:14;99365.16;;;24.38;50.17
79230;BME280;68663;49.122;17.544;2023-12-29T11:34:46;99358.34;;;24.36;49.66
79230;BME280;68663;49.122;17.544;2023-12-29T11:40:16;99364.81;;;24.36;50.11
79230;BME280;68663;49.122;17.544;2023-12-29T11:42:45;99340.59;;;24.35;49.82
79230;BME280;68663;49.122;17.544;2023-12-29T11:45:27;99345.38;;;24.38;50.20
79230;BME280;68663;49.122;17.544;2023-12-29T11:47:53;99343.72;;;24.41;49.86
79230;BME280;68663;49.122;17.544;2023-12-29T11:50:28;99346.13;;;24.42;48.51
79230;BME280;68663;49.122;17.544;2023-12-29T11:52:54;99354.16;;;24.44;48.58
79230;BME280;68663;49.122;17.544;2023-12-29T11:55:19;99354.97;;;24.44;48.29
79230;BME280;68663;49.122;17.544;2023-12-29T11:57:45;99352.13;;;24.44;49.47
79230;BME280;68663;49.122;17.544;2023-12-29T12:00:11;99347.72;;;24.43;50.28
79230;BME280;68663;49.122;17.544;2023-12-29T12:02:38;99347.72;;;24.43;50.60
79230;BME280;68663;49.122;17.544;2023-12-29T12:05:03;99344.53;;;24.41;51.88
79230;BME280;68663;49.122;17.544;2023-12-29T12:12:45;99362.28;;;24.42;52.16
79230;BME280;68663;49.122;17.544;2023-12-29T12:18:00;99357.78;;;24.44;52.08
79230;BME280;68663;49.122;17.544;2023-12-29T12:20:26;99357.34;;;24.46;51.98
79230;BME280;68663;49.122;17.544;2023-12-29T12:23:00;99352.50;;;24.47;52.20
79230;BME280;68663;49.122;17.544;2023-12-29T12:25:27;99359.75;;;24.48;52.02
79230;BME280;68663;49.122;17.544;2023-12-29T12:27:56;99355.31;;;24.47;52.19
79230;BME280;68663;49.122;17.544;2023-12-29T12:30:22;99348.06;;;24.45;51.91
79230;BME280;68663;49.122;17.544;2023-12-29T12:33:07;99343.22;;;24.46;52.18
79230;BME280;68663;49.122;17.544;2023-12-29T12:35:36;99342.06;;;24.43;52.40
79230;BME280;68663;49.122;17.544;2023-12-29T12:38:15;99336.03;;;24.41;52.30
79230;BME280;68663;49.122;17.544;2023-12-29T12:40:49;99330.38;;;24.41;51.91
79230;BME280;68663;49.122;17.544;2023-12-29T12:43:15;99331.63;;;24.40;51.98
79230;BME280;68663;49.122;17.544;2023-12-29T12:45:48;99329.16;;;24.42;51.51
79230;BME280;68663;49.122;17.544;2023-12-29T12:48:24;99334.81;;;24.42;51.44
79230;BME280;68663;49.122;17.544;2023-12-29T12:50:54;99326.69;;;24.44;51.24
79230;BME280;68663;49.122;17.544;2023-12-29T12:53:22;99325.81;;;24.48;51.65
79230;BME280;68663;49.122;17.544;2023-12-29T12:55:49;99317.72;;;24.50;51.14
79230;BME280;68663;49.122;17.544;2023-12-29T12:58:17;99318.06;;;24.52;51.03
79230;BME280;68663;49.122;17.544;2023-12-29T13:00:43;99324.09;;;24.54;51.22
79230;BME280;68663;49.122;17.544;2023-12-29T13:03:09;99322.50;;;24.53;51.36
79230;BME280;68663;49.122;17.544;2023-12-29T13:05:36;99318.88;;;24.52;51.08
79230;BME280;68663;49.122;17.544;2023-12-29T13:08:03;99315.69;;;24.50;50.80